sensor_id;sensor_type;location;lat;lon;timestamp;P1;durP1;ratioP1;P2;durP2;ratioP2
24567;SDS011;12731;52.182;8.716;2022-09-30T00:00:30;13.52;;;12.23;;
24567;SDS011;12731;52.182;8.716;2022-09-30T00:02:56;15.10;;;13.07;;
24567;SDS011;12731;52.182;8.716;2022-09-30T00:05:23;14.55;;;13.07;;
24567;SDS011;12731;52.182;8.716;2022-09-30T00:07:49;14.32;;;12.93;;
24567;SDS011;12731;52.182;8.716;2022-09-30T00:10:16;14.18;;;12.70;;
24567;SDS011;12731;52.182;8.716;2022-09-30T00:12:42;13.63;;;12.23;;
24567;SDS011;12731;52.182;8.716;2022-09-30T00:15:09;12.88;;;11.68;;
24567;SDS011;12731;52.182;8.716;2022-09-30T00:17:36;14.65;;;13.10;;
24567;SDS011;12731;52.182;8.716;2022-09-30T00:20:02;14.90;;;13.40;;
24567;SDS011;12731;52.182;8.716;2022-09-30T00:22:29;17.13;;;15.30;;
24567;SDS011;12731;52.182;8.716;2022-09-30T00:24:55;16.45;;;14.75;;
24567;SDS011;12731;52.182;8.716;2022-09-30T00:27:22;17.02;;;15.32;;
24567;SDS011;12731;52.182;8.716;2022-09-30T00:29:48;18.15;;;15.85;;
24567;SDS011;12731;52.182;8.716;2022-09-30T00:32:16;16.13;;;14.13;;
24567;SDS011;12731;52.182;8.716;2022-09-30T00:34:42;16.35;;;14.73;;
24567;SDS011;12731;52.182;8.716;2022-09-30T00:37:09;16.10;;;14.50;;
24567;SDS011;12731;52.182;8.716;2022-09-30T00:39:40;15.68;;;14.07;;
24567;SDS011;12731;52.182;8.716;2022-09-30T00:42:09;16.13;;;14.40;;
24567;SDS011;12731;52.182;8.716;2022-09-30T00:44:47;15.48;;;13.95;;
24567;SDS011;12731;52.182;8.716;2022-09-30T00:49:49;17.30;;;14.15;;
24567;SDS011;12731;52.182;8.716;2022-09-30T00:52:16;16.45;;;14.57;;
24567;SDS011;12731;52.182;8.716;2022-09-30T00:54:42;15.95;;;14.30;;
24567;SDS011;12731;52.182;8.716;2022-09-30T00:57:09;15.23;;;13.70;;
24567;SDS011;12731;52.182;8.716;2022-09-30T00:59:37;16.08;;;13.07;;
24567;SDS011;12731;52.182;8.716;2022-09-30T01:02:07;17.33;;;13.80;;
24567;SDS011;12731;52.182;8.716;2022-09-30T01:04:35;14.52;;;13.13;;
24567;SDS011;12731;52.182;8.716;2022-09-30T01:07:03;17.83;;;15.93;;
24567;SDS011;12731;52.182;8.716;2022-09-30T01:09:34;17.90;;;16.02;;
24567;SDS011;12731;52.182;8.716;2022-09-30T01:12:13;16.52;;;14.93;;
24567;SDS011;12731;52.182;8.716;2022-09-30T01:14:42;17.92;;;16.17;;
24567;SDS011;12731;52.182;8.716;2022-09-30T01:23:15;17.60;;;15.75;;
24567;SDS011;12731;52.182;8.716;2022-09-30T01:34:13;18.58;;;16.67;;
24567;SDS011;12731;52.182;8.716;2022-09-30T01:37:05;20.77;;;16.50;;
24567;SDS011;12731;52.182;8.716;2022-09-30T01:39:56;19.15;;;17.25;;
24567;SDS011;12731;52.182;8.716;2022-09-30T01:45:27;17.98;;;16.17;;
24567;SDS011;12731;52.182;8.716;2022-09-30T01:48:06;18.45;;;16.60;;
24567;SDS011;12731;52.182;8.716;2022-09-30T01:51:37;19.00;;;16.92;;
24567;SDS011;12731;52.182;8.716;2022-09-30T01:57:01;19.77;;;17.73;;
24567;SDS011;12731;52.182;8.716;2022-09-30T01:59:35;18.38;;;16.48;;
24567;SDS011;12731;52.182;8.716;2022-09-30T02:05:04;18.88;;;16.98;;
24567;SDS011;12731;52.182;8.716;2022-09-30T02:07:38;18.33;;;16.40;;
24567;SDS011;12731;52.182;8.716;2022-09-30T02:10:15;18.40;;;16.50;;
24567;SDS011;12731;52.182;8.716;2022-09-30T02:12:49;20.30;;;16.20;;
24567;SDS011;12731;52.182;8.716;2022-09-30T02:15:21;18.45;;;16.45;;
24567;SDS011;12731;52.182;8.716;2022-09-30T02:17:52;19.35;;;17.38;;
24567;SDS011;12731;52.182;8.716;2022-09-30T02:20:25;18.40;;;16.42;;
24567;SDS011;12731;52.182;8.716;2022-09-30T02:23:02;21.67;;;17.67;;
24567;SDS011;12731;52.182;8.716;2022-09-30T02:25:32;18.55;;;16.73;;
24567;SDS011;12731;52.182;8.716;2022-09-30T02:28:04;21.00;;;17.33;;
24567;SDS011;12731;52.182;8.716;2022-09-30T02:30:33;18.85;;;16.83;;
24567;SDS011;12731;52.182;8.716;2022-09-30T02:33:08;22.00;;;17.70;;
24567;SDS011;12731;52.182;8.716;2022-09-30T02:35:40;19.90;;;17.00;;
24567;SDS011;12731;52.182;8.716;2022-09-30T02:40:49;25.83;;;18.13;;
24567;SDS011;12731;52.182;8.716;2022-09-30T02:43:36;20.05;;;17.50;;
24567;SDS011;12731;52.182;8.716;2022-09-30T02:51:22;26.15;;;19.45;;
24567;SDS011;12731;52.182;8.716;2022-09-30T02:54:14;22.85;;;18.20;;
24567;SDS011;12731;52.182;8.716;2022-09-30T02:56:47;18.83;;;16.00;;
24567;SDS011;12731;52.182;8.716;2022-09-30T02:59:20;19.20;;;16.17;;
24567;SDS011;12731;52.182;8.716;2022-09-30T03:01:47;17.55;;;15.50;;
24567;SDS011;12731;52.182;8.716;2022-09-30T03:04:14;17.90;;;15.50;;
24567;SDS011;12731;52.182;8.716;2022-09-30T03:06:47;17.77;;;15.63;;
24567;SDS011;12731;52.182;8.716;2022-09-30T03:09:14;17.27;;;15.45;;
24567;SDS011;12731;52.182;8.716;2022-09-30T03:11:41;16.05;;;14.35;;
24567;SDS011;12731;52.182;8.716;2022-09-30T03:17:10;16.35;;;14.65;;
24567;SDS011;12731;52.182;8.716;2022-09-30T03:30:19;15.45;;;13.77;;
24567;SDS011;12731;52.182;8.716;2022-09-30T03:35:47;16.88;;;15.18;;
24567;SDS011;12731;52.182;8.716;2022-09-30T03:41:38;20.15;;;16.42;;
24567;SDS011;12731;52.182;8.716;2022-09-30T03:44:08;17.35;;;15.50;;
24567;SDS011;12731;52.182;8.716;2022-09-30T03:46:41;18.75;;;15.95;;
24567;SDS011;12731;52.182;8.716;2022-09-30T03:49:14;17.17;;;15.15;;
24567;SDS011;12731;52.182;8.716;2022-09-30T03:51:45;18.63;;;15.48;;
24567;SDS011;12731;52.182;8.716;2022-09-30T03:54:11;17.88;;;15.65;;
24567;SDS011;12731;52.182;8.716;2022-09-30T03:56:39;17.75;;;15.85;;
24567;SDS011;12731;52.182;8.716;2022-09-30T03:59:09;20.45;;;16.35;;
24567;SDS011;12731;52.182;8.716;2022-09-30T04:01:44;20.17;;;17.38;;
24567;SDS011;12731;52.182;8.716;2022-09-30T04:04:11;18.30;;;16.27;;
24567;SDS011;12731;52.182;8.716;2022-09-30T04:06:37;19.00;;;16.55;;
24567;SDS011;12731;52.182;8.716;2022-09-30T04:09:04;19.40;;;16.75;;
24567;SDS011;12731;52.182;8.716;2022-09-30T04:11:31;18.33;;;16.35;;
24567;SDS011;12731;52.182;8.716;2022-09-30T04:13:57;19.63;;;17.52;;
24567;SDS011;12731;52.182;8.716;2022-09-30T04:16:23;19.00;;;17.00;;
24567;SDS011;12731;52.182;8.716;2022-09-30T04:18:50;20.98;;;17.63;;
24567;SDS011;12731;52.182;8.716;2022-09-30T04:21:16;19.80;;;17.25;;
24567;SDS011;12731;52.182;8.716;2022-09-30T04:23:43;19.90;;;17.88;;
24567;SDS011;12731;52.182;8.716;2022-09-30T04:26:11;18.92;;;16.75;;
24567;SDS011;12731;52.182;8.716;2022-09-30T04:28:38;19.92;;;17.80;;
24567;SDS011;12731;52.182;8.716;2022-09-30T04:31:05;19.65;;;17.60;;
24567;SDS011;12731;52.182;8.716;2022-09-30T04:33:31;21.42;;;18.27;;
24567;SDS011;12731;52.182;8.716;2022-09-30T04:35:58;19.90;;;17.80;;
24567;SDS011;12731;52.182;8.716;2022-09-30T04:38:26;18.33;;;16.42;;
24567;SDS011;12731;52.182;8.716;2022-09-30T04:40:53;18.95;;;16.95;;
24567;SDS011;12731;52.182;8.716;2022-09-30T04:43:23;19.20;;;17.08;;
24567;SDS011;12731;52.182;8.716;2022-09-30T04:45:50;20.58;;;17.83;;
24567;SDS011;12731;52.182;8.716;2022-09-30T04:48:20;20.73;;;17.65;;
24567;SDS011;12731;52.182;8.716;2022-09-30T04:50:47;21.23;;;18.40;;
24567;SDS011;12731;52.182;8.716;2022-09-30T04:53:15;21.45;;;17.75;;
24567;SDS011;12731;52.182;8.716;2022-09-30T04:55:42;19.48;;;17.45;;
24567;SDS011;12731;52.182;8.716;2022-09-30T04:58:09;20.08;;;17.95;;
24567;SDS011;12731;52.182;8.716;2022-09-30T05:00:36;20.17;;;17.20;;
24567;SDS011;12731;52.182;8.716;2022-09-30T05:03:03;19.95;;;17.13;;
24567;SDS011;12731;52.182;8.716;2022-09-30T05:05:31;18.70;;;16.65;;
24567;SDS011;12731;52.182;8.716;2022-09-30T05:07:59;17.67;;;15.95;;
24567;SDS011;12731;52.182;8.716;2022-09-30T05:10:26;19.27;;;17.30;;
24567;SDS011;12731;52.182;8.716;2022-09-30T05:12:53;18.75;;;16.42;;
24567;SDS011;12731;52.182;8.716;2022-09-30T05:15:20;16.83;;;14.77;;
24567;SDS011;12731;52.182;8.716;2022-09-30T05:17:49;18.38;;;16.40;;
24567;SDS011;12731;52.182;8.716;2022-09-30T05:20:15;17.77;;;15.82;;
24567;SDS011;12731;52.182;8.716;2022-09-30T05:22:46;18.33;;;15.57;;
24567;SDS011;12731;52.182;8.716;2022-09-30T05:25:13;17.17;;;15.48;;
24567;SDS011;12731;52.182;8.716;2022-09-30T05:27:39;19.30;;;17.27;;
24567;SDS011;12731;52.182;8.716;2022-09-30T05:30:06;19.13;;;16.60;;
24567;SDS011;12731;52.182;8.716;2022-09-30T05:32:33;17.58;;;15.77;;
24567;SDS011;12731;52.182;8.716;2022-09-30T05:34:59;19.58;;;15.93;;
24567;SDS011;12731;52.182;8.716;2022-09-30T05:37:26;18.70;;;16.73;;
24567;SDS011;12731;52.182;8.716;2022-09-30T05:39:53;17.63;;;15.45;;
24567;SDS011;12731;52.182;8.716;2022-09-30T05:42:20;18.20;;;15.00;;
24567;SDS011;12731;52.182;8.716;2022-09-30T05:44:46;17.27;;;15.50;;
24567;SDS011;12731;52.182;8.716;2022-09-30T05:47:13;18.27;;;15.32;;
24567;SDS011;12731;52.182;8.716;2022-09-30T05:49:39;18.15;;;15.73;;
24567;SDS011;12731;52.182;8.716;2022-09-30T05:52:06;17.80;;;15.95;;
24567;SDS011;12731;52.182;8.716;2022-09-30T05:54:33;24.88;;;16.60;;
24567;SDS011;12731;52.182;8.716;2022-09-30T05:56:59;17.98;;;16.08;;
24567;SDS011;12731;52.182;8.716;2022-09-30T05:59:26;18.40;;;16.40;;
24567;SDS011;12731;52.182;8.716;2022-09-30T06:01:52;18.50;;;16.58;;
24567;SDS011;12731;52.182;8.716;2022-09-30T06:04:19;22.67;;;16.98;;
24567;SDS011;12731;52.182;8.716;2022-09-30T06:06:46;18.73;;;16.10;;
24567;SDS011;12731;52.182;8.716;2022-09-30T06:09:13;18.75;;;16.52;;
24567;SDS011;12731;52.182;8.716;2022-09-30T06:11:40;20.20;;;16.73;;
24567;SDS011;12731;52.182;8.716;2022-09-30T06:14:07;19.23;;;17.13;;
24567;SDS011;12731;52.182;8.716;2022-09-30T06:16:34;20.02;;;17.15;;
24567;SDS011;12731;52.182;8.716;2022-09-30T06:19:00;20.05;;;17.98;;
24567;SDS011;12731;52.182;8.716;2022-09-30T06:21:27;20.15;;;17.40;;
24567;SDS011;12731;52.182;8.716;2022-09-30T06:23:54;19.40;;;17.38;;
24567;SDS011;12731;52.182;8.716;2022-09-30T06:26:20;21.25;;;17.95;;
24567;SDS011;12731;52.182;8.716;2022-09-30T06:28:47;21.83;;;19.30;;
24567;SDS011;12731;52.182;8.716;2022-09-30T06:31:13;20.55;;;18.35;;
24567;SDS011;12731;52.182;8.716;2022-09-30T06:33:40;19.77;;;17.73;;
24567;SDS011;12731;52.182;8.716;2022-09-30T06:36:07;28.17;;;25.05;;
24567;SDS011;12731;52.182;8.716;2022-09-30T06:38:34;27.73;;;24.42;;
24567;SDS011;12731;52.182;8.716;2022-09-30T06:41:02;27.58;;;24.45;;
24567;SDS011;12731;52.182;8.716;2022-09-30T06:43:28;27.58;;;24.63;;
24567;SDS011;12731;52.182;8.716;2022-09-30T06:45:59;27.92;;;24.98;;
24567;SDS011;12731;52.182;8.716;2022-09-30T06:48:40;23.00;;;20.65;;
24567;SDS011;12731;52.182;8.716;2022-09-30T06:51:06;20.95;;;18.85;;
24567;SDS011;12731;52.182;8.716;2022-09-30T06:53:36;18.23;;;16.33;;
24567;SDS011;12731;52.182;8.716;2022-09-30T06:56:04;15.32;;;13.85;;
24567;SDS011;12731;52.182;8.716;2022-09-30T06:58:31;13.23;;;12.02;;
24567;SDS011;12731;52.182;8.716;2022-09-30T07:01:02;11.82;;;10.75;;
24567;SDS011;12731;52.182;8.716;2022-09-30T07:03:30;10.93;;;9.93;;
24567;SDS011;12731;52.182;8.716;2022-09-30T07:05:59;10.85;;;9.85;;
24567;SDS011;12731;52.182;8.716;2022-09-30T07:08:27;10.70;;;9.65;;
24567;SDS011;12731;52.182;8.716;2022-09-30T07:10:57;9.52;;;8.60;;
24567;SDS011;12731;52.182;8.716;2022-09-30T07:13:24;9.20;;;8.40;;
24567;SDS011;12731;52.182;8.716;2022-09-30T07:15:50;10.23;;;9.20;;
24567;SDS011;12731;52.182;8.716;2022-09-30T07:18:19;10.55;;;9.38;;
24567;SDS011;12731;52.182;8.716;2022-09-30T07:20:47;12.05;;;9.23;;
24567;SDS011;12731;52.182;8.716;2022-09-30T07:23:17;10.75;;;9.32;;
24567;SDS011;12731;52.182;8.716;2022-09-30T07:25:49;12.75;;;11.20;;
24567;SDS011;12731;52.182;8.716;2022-09-30T07:28:16;13.93;;;12.43;;
24567;SDS011;12731;52.182;8.716;2022-09-30T07:30:43;14.13;;;11.52;;
24567;SDS011;12731;52.182;8.716;2022-09-30T07:33:09;16.25;;;11.65;;
24567;SDS011;12731;52.182;8.716;2022-09-30T07:35:48;15.15;;;11.75;;
24567;SDS011;12731;52.182;8.716;2022-09-30T07:38:17;15.48;;;12.07;;
24567;SDS011;12731;52.182;8.716;2022-09-30T07:40:54;15.60;;;12.18;;
24567;SDS011;12731;52.182;8.716;2022-09-30T07:43:29;14.35;;;12.18;;
24567;SDS011;12731;52.182;8.716;2022-09-30T07:46:17;14.20;;;12.65;;
24567;SDS011;12731;52.182;8.716;2022-09-30T07:48:46;13.65;;;12.25;;
24567;SDS011;12731;52.182;8.716;2022-09-30T07:51:18;15.25;;;12.82;;
24567;SDS011;12731;52.182;8.716;2022-09-30T07:53:53;15.43;;;12.75;;
24567;SDS011;12731;52.182;8.716;2022-09-30T07:56:21;14.98;;;12.68;;
24567;SDS011;12731;52.182;8.716;2022-09-30T07:58:48;14.48;;;12.98;;
24567;SDS011;12731;52.182;8.716;2022-09-30T08:01:18;15.65;;;13.57;;
24567;SDS011;12731;52.182;8.716;2022-09-30T08:03:45;15.77;;;14.07;;
24567;SDS011;12731;52.182;8.716;2022-09-30T08:06:13;16.13;;;14.52;;
24567;SDS011;12731;52.182;8.716;2022-09-30T08:08:42;18.70;;;16.10;;
24567;SDS011;12731;52.182;8.716;2022-09-30T08:11:10;19.40;;;17.10;;
24567;SDS011;12731;52.182;8.716;2022-09-30T08:13:37;20.25;;;17.30;;
24567;SDS011;12731;52.182;8.716;2022-09-30T08:16:04;21.02;;;16.48;;
24567;SDS011;12731;52.182;8.716;2022-09-30T08:18:30;19.77;;;17.75;;
24567;SDS011;12731;52.182;8.716;2022-09-30T08:21:01;18.52;;;16.58;;
24567;SDS011;12731;52.182;8.716;2022-09-30T08:23:32;19.15;;;17.08;;
24567;SDS011;12731;52.182;8.716;2022-09-30T08:28:29;23.40;;;18.17;;
24567;SDS011;12731;52.182;8.716;2022-09-30T08:33:40;19.60;;;17.35;;
24567;SDS011;12731;52.182;8.716;2022-09-30T08:36:11;20.13;;;17.98;;
24567;SDS011;12731;52.182;8.716;2022-09-30T08:38:39;20.20;;;16.80;;
24567;SDS011;12731;52.182;8.716;2022-09-30T08:41:11;19.08;;;16.27;;
24567;SDS011;12731;52.182;8.716;2022-09-30T08:43:58;17.15;;;15.27;;
24567;SDS011;12731;52.182;8.716;2022-09-30T08:52:35;18.38;;;14.20;;
24567;SDS011;12731;52.182;8.716;2022-09-30T08:55:19;15.18;;;13.63;;
24567;SDS011;12731;52.182;8.716;2022-09-30T08:57:51;17.10;;;13.73;;
24567;SDS011;12731;52.182;8.716;2022-09-30T09:00:19;19.30;;;15.10;;
24567;SDS011;12731;52.182;8.716;2022-09-30T09:02:50;20.27;;;15.02;;
24567;SDS011;12731;52.182;8.716;2022-09-30T09:10:39;19.75;;;14.02;;
24567;SDS011;12731;52.182;8.716;2022-09-30T09:18:50;18.05;;;15.07;;
24567;SDS011;12731;52.182;8.716;2022-09-30T09:24:02;17.15;;;13.90;;
24567;SDS011;12731;52.182;8.716;2022-09-30T09:26:30;15.88;;;13.32;;
24567;SDS011;12731;52.182;8.716;2022-09-30T09:31:39;14.90;;;12.32;;
24567;SDS011;12731;52.182;8.716;2022-09-30T09:34:08;14.90;;;13.18;;
24567;SDS011;12731;52.182;8.716;2022-09-30T09:36:54;16.52;;;12.68;;
24567;SDS011;12731;52.182;8.716;2022-09-30T09:41:57;13.13;;;11.73;;
24567;SDS011;12731;52.182;8.716;2022-09-30T09:44:59;13.40;;;12.10;;
24567;SDS011;12731;52.182;8.716;2022-09-30T09:47:28;17.45;;;12.27;;
24567;SDS011;12731;52.182;8.716;2022-09-30T09:52:43;13.52;;;12.10;;
24567;SDS011;12731;52.182;8.716;2022-09-30T09:55:18;13.98;;;12.13;;
24567;SDS011;12731;52.182;8.716;2022-09-30T09:57:46;12.75;;;11.45;;
24567;SDS011;12731;52.182;8.716;2022-09-30T10:05:43;11.98;;;10.63;;
24567;SDS011;12731;52.182;8.716;2022-09-30T10:08:17;12.10;;;10.85;;
24567;SDS011;12731;52.182;8.716;2022-09-30T10:10:52;12.68;;;11.35;;
24567;SDS011;12731;52.182;8.716;2022-09-30T10:13:22;12.45;;;11.02;;
24567;SDS011;12731;52.182;8.716;2022-09-30T10:15:53;14.75;;;12.85;;
24567;SDS011;12731;52.182;8.716;2022-09-30T10:20:54;13.85;;;12.52;;
24567;SDS011;12731;52.182;8.716;2022-09-30T10:23:56;14.13;;;12.05;;
24567;SDS011;12731;52.182;8.716;2022-09-30T10:33:47;13.90;;;11.60;;
24567;SDS011;12731;52.182;8.716;2022-09-30T10:36:19;14.63;;;13.02;;
24567;SDS011;12731;52.182;8.716;2022-09-30T10:38:56;15.18;;;11.70;;
24567;SDS011;12731;52.182;8.716;2022-09-30T10:43:57;12.50;;;10.35;;
24567;SDS011;12731;52.182;8.716;2022-09-30T10:46:27;11.75;;;10.35;;
24567;SDS011;12731;52.182;8.716;2022-09-30T10:48:58;13.82;;;10.68;;
24567;SDS011;12731;52.182;8.716;2022-09-30T10:51:26;13.00;;;9.63;;
24567;SDS011;12731;52.182;8.716;2022-09-30T10:53:55;15.48;;;9.13;;
24567;SDS011;12731;52.182;8.716;2022-09-30T10:59:11;14.77;;;9.52;;
24567;SDS011;12731;52.182;8.716;2022-09-30T11:01:53;13.25;;;10.02;;
24567;SDS011;12731;52.182;8.716;2022-09-30T11:07:13;16.15;;;10.35;;
24567;SDS011;12731;52.182;8.716;2022-09-30T11:10:07;11.18;;;9.00;;
24567;SDS011;12731;52.182;8.716;2022-09-30T11:12:38;11.73;;;8.57;;
24567;SDS011;12731;52.182;8.716;2022-09-30T11:15:23;10.90;;;7.70;;
24567;SDS011;12731;52.182;8.716;2022-09-30T11:20:27;12.60;;;8.07;;
24567;SDS011;12731;52.182;8.716;2022-09-30T11:23:00;9.43;;;7.30;;
24567;SDS011;12731;52.182;8.716;2022-09-30T11:25:35;9.13;;;7.05;;
24567;SDS011;12731;52.182;8.716;2022-09-30T11:28:15;10.00;;;6.65;;
24567;SDS011;12731;52.182;8.716;2022-09-30T11:31:11;10.75;;;7.30;;
24567;SDS011;12731;52.182;8.716;2022-09-30T11:33:49;10.18;;;7.47;;
24567;SDS011;12731;52.182;8.716;2022-09-30T11:36:29;8.38;;;6.53;;
24567;SDS011;12731;52.182;8.716;2022-09-30T11:39:04;8.70;;;6.43;;
24567;SDS011;12731;52.182;8.716;2022-09-30T11:41:45;8.07;;;6.95;;
24567;SDS011;12731;52.182;8.716;2022-09-30T11:47:15;13.57;;;8.20;;
24567;SDS011;12731;52.182;8.716;2022-09-30T11:58:00;9.02;;;7.30;;
24567;SDS011;12731;52.182;8.716;2022-09-30T12:01:00;11.95;;;7.43;;
24567;SDS011;12731;52.182;8.716;2022-09-30T12:03:39;7.90;;;6.55;;
24567;SDS011;12731;52.182;8.716;2022-09-30T12:06:13;8.65;;;6.60;;
24567;SDS011;12731;52.182;8.716;2022-09-30T12:08:50;8.52;;;6.57;;
24567;SDS011;12731;52.182;8.716;2022-09-30T12:11:31;8.10;;;6.38;;
24567;SDS011;12731;52.182;8.716;2022-09-30T12:14:02;9.75;;;6.22;;
24567;SDS011;12731;52.182;8.716;2022-09-30T12:16:32;8.27;;;6.63;;
24567;SDS011;12731;52.182;8.716;2022-09-30T12:19:02;8.52;;;7.32;;
24567;SDS011;12731;52.182;8.716;2022-09-30T12:24:26;8.68;;;7.50;;
24567;SDS011;12731;52.182;8.716;2022-09-30T12:26:56;8.93;;;6.65;;
24567;SDS011;12731;52.182;8.716;2022-09-30T12:29:26;9.07;;;6.90;;
24567;SDS011;12731;52.182;8.716;2022-09-30T12:35:25;10.45;;;6.72;;
24567;SDS011;12731;52.182;8.716;2022-09-30T12:40:53;8.57;;;5.95;;
24567;SDS011;12731;52.182;8.716;2022-09-30T12:43:40;7.75;;;6.20;;
24567;SDS011;12731;52.182;8.716;2022-09-30T12:46:53;8.00;;;5.65;;
24567;SDS011;12731;52.182;8.716;2022-09-30T12:51:40;8.57;;;5.50;;
24567;SDS011;12731;52.182;8.716;2022-09-30T12:54:15;6.43;;;5.32;;
24567;SDS011;12731;52.182;8.716;2022-09-30T12:56:45;7.40;;;5.18;;
24567;SDS011;12731;52.182;8.716;2022-09-30T12:59:19;6.35;;;5.30;;
24567;SDS011;12731;52.182;8.716;2022-09-30T13:01:50;7.72;;;5.28;;
24567;SDS011;12731;52.182;8.716;2022-09-30T13:04:28;6.85;;;5.10;;
24567;SDS011;12731;52.182;8.716;2022-09-30T13:09:29;6.15;;;4.90;;
24567;SDS011;12731;52.182;8.716;2022-09-30T13:14:36;5.72;;;4.53;;
24567;SDS011;12731;52.182;8.716;2022-09-30T13:19:36;6.47;;;4.82;;
24567;SDS011;12731;52.182;8.716;2022-09-30T13:32:43;6.63;;;4.30;;
24567;SDS011;12731;52.182;8.716;2022-09-30T13:35:31;5.55;;;4.05;;
24567;SDS011;12731;52.182;8.716;2022-09-30T13:46:35;7.50;;;3.97;;
24567;SDS011;12731;52.182;8.716;2022-09-30T13:49:13;7.57;;;4.10;;
24567;SDS011;12731;52.182;8.716;2022-09-30T13:51:43;5.07;;;3.92;;
24567;SDS011;12731;52.182;8.716;2022-09-30T13:54:14;8.60;;;4.72;;
24567;SDS011;12731;52.182;8.716;2022-09-30T13:56:49;5.18;;;3.97;;
24567;SDS011;12731;52.182;8.716;2022-09-30T13:59:37;8.88;;;4.13;;
24567;SDS011;12731;52.182;8.716;2022-09-30T14:02:16;5.88;;;4.10;;
24567;SDS011;12731;52.182;8.716;2022-09-30T14:13:02;7.40;;;3.92;;
24567;SDS011;12731;52.182;8.716;2022-09-30T14:15:42;5.30;;;3.60;;
24567;SDS011;12731;52.182;8.716;2022-09-30T14:21:17;6.00;;;3.85;;
24567;SDS011;12731;52.182;8.716;2022-09-30T14:24:00;5.65;;;3.97;;
24567;SDS011;12731;52.182;8.716;2022-09-30T14:31:59;5.57;;;3.28;;
24567;SDS011;12731;52.182;8.716;2022-09-30T14:34:26;5.68;;;3.10;;
24567;SDS011;12731;52.182;8.716;2022-09-30T14:36:54;5.93;;;3.05;;
24567;SDS011;12731;52.182;8.716;2022-09-30T14:39:25;3.20;;;2.72;;
24567;SDS011;12731;52.182;8.716;2022-09-30T14:41:53;4.65;;;3.05;;
24567;SDS011;12731;52.182;8.716;2022-09-30T14:44:24;5.10;;;3.30;;
24567;SDS011;12731;52.182;8.716;2022-09-30T14:46:51;7.55;;;3.42;;
24567;SDS011;12731;52.182;8.716;2022-09-30T14:49:25;4.70;;;3.33;;
24567;SDS011;12731;52.182;8.716;2022-09-30T14:51:59;5.50;;;3.50;;
24567;SDS011;12731;52.182;8.716;2022-09-30T14:54:29;6.13;;;4.10;;
24567;SDS011;12731;52.182;8.716;2022-09-30T14:56:57;4.63;;;3.63;;
24567;SDS011;12731;52.182;8.716;2022-09-30T14:59:29;6.05;;;4.05;;
24567;SDS011;12731;52.182;8.716;2022-09-30T15:02:01;5.15;;;3.70;;
24567;SDS011;12731;52.182;8.716;2022-09-30T15:04:32;7.00;;;4.28;;
24567;SDS011;12731;52.182;8.716;2022-09-30T15:07:00;7.03;;;4.13;;
24567;SDS011;12731;52.182;8.716;2022-09-30T15:09:38;7.35;;;4.55;;
24567;SDS011;12731;52.182;8.716;2022-09-30T15:14:51;7.22;;;4.60;;
24567;SDS011;12731;52.182;8.716;2022-09-30T15:17:20;6.57;;;3.97;;
24567;SDS011;12731;52.182;8.716;2022-09-30T15:19:48;5.88;;;4.55;;
24567;SDS011;12731;52.182;8.716;2022-09-30T15:22:16;3.70;;;3.38;;
24567;SDS011;12731;52.182;8.716;2022-09-30T15:24:43;4.10;;;3.45;;
24567;SDS011;12731;52.182;8.716;2022-09-30T15:27:21;5.85;;;3.38;;
24567;SDS011;12731;52.182;8.716;2022-09-30T15:32:22;4.00;;;3.00;;
24567;SDS011;12731;52.182;8.716;2022-09-30T15:34:49;4.32;;;3.05;;
24567;SDS011;12731;52.182;8.716;2022-09-30T15:37:20;6.60;;;3.72;;
24567;SDS011;12731;52.182;8.716;2022-09-30T15:39:48;4.47;;;3.60;;
24567;SDS011;12731;52.182;8.716;2022-09-30T15:47:53;6.65;;;4.15;;
24567;SDS011;12731;52.182;8.716;2022-09-30T15:50:40;5.43;;;4.38;;
24567;SDS011;12731;52.182;8.716;2022-09-30T15:53:18;5.35;;;4.13;;
24567;SDS011;12731;52.182;8.716;2022-09-30T15:55:54;6.15;;;4.60;;
24567;SDS011;12731;52.182;8.716;2022-09-30T15:58:31;7.25;;;4.00;;
24567;SDS011;12731;52.182;8.716;2022-09-30T16:03:49;5.43;;;4.88;;
24567;SDS011;12731;52.182;8.716;2022-09-30T16:06:21;6.65;;;4.75;;
24567;SDS011;12731;52.182;8.716;2022-09-30T16:08:56;7.18;;;5.00;;
24567;SDS011;12731;52.182;8.716;2022-09-30T16:11:28;7.35;;;4.55;;
24567;SDS011;12731;52.182;8.716;2022-09-30T16:14:00;6.32;;;4.30;;
24567;SDS011;12731;52.182;8.716;2022-09-30T16:16:29;6.55;;;4.43;;
24567;SDS011;12731;52.182;8.716;2022-09-30T16:18:57;7.88;;;4.97;;
24567;SDS011;12731;52.182;8.716;2022-09-30T16:21:43;6.32;;;4.90;;
24567;SDS011;12731;52.182;8.716;2022-09-30T16:26:58;7.90;;;5.50;;
24567;SDS011;12731;52.182;8.716;2022-09-30T16:29:28;7.35;;;4.95;;
24567;SDS011;12731;52.182;8.716;2022-09-30T16:31:55;6.82;;;4.80;;
24567;SDS011;12731;52.182;8.716;2022-09-30T16:34:26;7.65;;;4.82;;
24567;SDS011;12731;52.182;8.716;2022-09-30T16:36:54;7.05;;;5.07;;
24567;SDS011;12731;52.182;8.716;2022-09-30T16:39:29;8.50;;;5.35;;
24567;SDS011;12731;52.182;8.716;2022-09-30T16:41:55;6.80;;;5.28;;
24567;SDS011;12731;52.182;8.716;2022-09-30T16:44:22;7.20;;;5.20;;
24567;SDS011;12731;52.182;8.716;2022-09-30T16:46:49;6.55;;;4.57;;
24567;SDS011;12731;52.182;8.716;2022-09-30T16:49:17;8.43;;;5.30;;
24567;SDS011;12731;52.182;8.716;2022-09-30T16:51:44;5.95;;;4.50;;
24567;SDS011;12731;52.182;8.716;2022-09-30T16:54:11;7.32;;;5.00;;
24567;SDS011;12731;52.182;8.716;2022-09-30T16:56:37;7.18;;;4.25;;
24567;SDS011;12731;52.182;8.716;2022-09-30T16:59:14;7.00;;;4.18;;
24567;SDS011;12731;52.182;8.716;2022-09-30T17:01:41;5.28;;;3.70;;
24567;SDS011;12731;52.182;8.716;2022-09-30T17:04:08;6.07;;;3.85;;
24567;SDS011;12731;52.182;8.716;2022-09-30T17:06:40;6.45;;;3.83;;
24567;SDS011;12731;52.182;8.716;2022-09-30T17:09:06;6.57;;;3.95;;
24567;SDS011;12731;52.182;8.716;2022-09-30T17:11:34;4.75;;;3.80;;
24567;SDS011;12731;52.182;8.716;2022-09-30T17:14:02;5.43;;;3.85;;
24567;SDS011;12731;52.182;8.716;2022-09-30T17:16:29;4.97;;;4.03;;
24567;SDS011;12731;52.182;8.716;2022-09-30T17:18:56;6.38;;;4.30;;
24567;SDS011;12731;52.182;8.716;2022-09-30T17:21:23;5.93;;;4.28;;
24567;SDS011;12731;52.182;8.716;2022-09-30T17:23:51;9.38;;;4.57;;
24567;SDS011;12731;52.182;8.716;2022-09-30T17:26:19;7.05;;;4.40;;
24567;SDS011;12731;52.182;8.716;2022-09-30T17:28:45;5.13;;;4.32;;
24567;SDS011;12731;52.182;8.716;2022-09-30T17:31:12;6.82;;;4.88;;
24567;SDS011;12731;52.182;8.716;2022-09-30T17:33:39;7.35;;;5.00;;
24567;SDS011;12731;52.182;8.716;2022-09-30T17:36:07;7.75;;;4.70;;
24567;SDS011;12731;52.182;8.716;2022-09-30T17:38:35;7.32;;;4.53;;
24567;SDS011;12731;52.182;8.716;2022-09-30T17:41:03;6.40;;;5.10;;
24567;SDS011;12731;52.182;8.716;2022-09-30T17:43:48;6.07;;;4.72;;
24567;SDS011;12731;52.182;8.716;2022-09-30T17:46:15;5.85;;;4.80;;
24567;SDS011;12731;52.182;8.716;2022-09-30T17:48:48;6.07;;;5.00;;
24567;SDS011;12731;52.182;8.716;2022-09-30T17:51:16;5.22;;;4.72;;
24567;SDS011;12731;52.182;8.716;2022-09-30T17:53:43;7.45;;;5.10;;
24567;SDS011;12731;52.182;8.716;2022-09-30T17:56:17;7.03;;;5.30;;
24567;SDS011;12731;52.182;8.716;2022-09-30T17:58:45;8.50;;;5.45;;
24567;SDS011;12731;52.182;8.716;2022-09-30T18:01:13;8.00;;;5.05;;
24567;SDS011;12731;52.182;8.716;2022-09-30T18:03:40;6.32;;;4.60;;
24567;SDS011;12731;52.182;8.716;2022-09-30T18:06:07;6.55;;;5.00;;
24567;SDS011;12731;52.182;8.716;2022-09-30T18:08:33;6.57;;;5.05;;